Baltimore, Maryland
Traffic Map
Current Weather Conditions
Baltimore, Maryland
Overcast Light Rain
Overcast
13°
Feels Like: 13°
Wind Chill: 13° Ceiling: 3000
Heat Index: 13° Visibility: 8mi
Dew Point: Wind: 0mph
Humidity: 74% Direction: ° ()
Pressure: 29.65in Gusts: 0mph
Raw Report DataKBWI 052354Z 00000KT 8SM -RA FEW016 OVC030 13/08 A2965 RMK AO2 RAB52 SLP038 VCSH SE-NW P0000 60000 T01280083 10133 20122 53005
Traffic Incident Summary
Active as of:
Severity:
Category:
InformationThere was an issue retrieving the traffic information for this location. Please try a different location or try again shortly.
Advertisements
Track Severe Weather on mobile